Meath Environmental Platform

Observations for Trim Market St

Time AQI Temp °C Hum % Pres Pa CO μg/m³ H₂S μg/m³ NO μg/m³ NO₂ μg/m³ O₃ μg/m³ SO₂ μg/m³ PM1 μg/m³ PM2.5 μg/m³ PM10 μg/m³
Friday 14 August 2026
16:58 2 25.8 44 62,920 0 0 1.15 13.04 55.51 0 0 2.17 2.39
16:56 2 25.8 44 63,049 0 0 1.02 16.1 55.91 0 0 2.18 2.4
16:55 2 25.9 44 63,135 0 0 1 14.78 54.43 0 0 2.19 2.41
16:54 2 25.9 44 63,221 0 0 0.97 9.92 57.79 0 0 2.18 2.4
16:53 2 26 44 63,256 0 0 0.95 9.95 62.61 0 5.7 7.94 9.87
16:52 2 26.1 44 63,301 0 0 0.94 9.97 53.93 0 0 2.18 2.4
16:51 2 26.1 44 63,294 0 0 0.98 12.1 52.85 0 0 2.19 2.41
16:47 2 26.4 44 63,400 0 0 1.13 9.89 49.91 0 0 2.19 2.41
16:46 2 26.5 44 63,382 0 0 1.06 12.01 45.87 0 0 2.2 2.42
16:44 2 26.7 44 63,521 0 0 0.88 11.85 53.31 0 0 2.2 2.42
16:41 2 26.9 44 63,582 0.11 0 0.82 10.58 55.88 0 0 2.2 2.42
16:31 2 26.9 44 63,693 0 0 0.83 13.44 58.03 0 0 2.2 2.42
16:30 2 26.8 44 63,691 0 0 0.84 16.06 58.8 0 0 2.2 2.42
16:29 2 26.8 44 63,693 0 0 0.84 14.5 62.37 0 0 2.2 2.42
16:28 2 26.7 44 63,697 0 0 0.84 12.29 66.51 0 0 2.2 2.42
16:26 2 26.7 43 63,815 0 0 1.21 12.02 62.78 0 0 2.21 2.43
16:25 2 26.6 43 63,864 0 0 1.26 18.59 53.08 0 0 2.21 2.43
16:24 2 26.6 43 63,894 0 1.07 1.26 40.08 48.48 0 0 2.21 2.43
16:23 2 26.6 43 63,896 0.15 0 1.29 23.06 49.38 0 0 2.21 2.43
16:22 2 26.6 43 63,920 0 0 1.03 12.31 62.98 0 0 2.21 2.43